sensor_id;sensor_type;location;lat;lon;timestamp;P1;durP1;ratioP1;P2;durP2;ratioP2
57311;SDS011;43154;50.966;18.316;2023-04-08T00:02:35;26.30;;;10.80;;
57311;SDS011;43154;50.966;18.316;2023-04-08T00:05:07;25.80;;;12.00;;
57311;SDS011;43154;50.966;18.316;2023-04-08T00:07:41;27.00;;;11.80;;
57311;SDS011;43154;50.966;18.316;2023-04-08T00:10:10;27.10;;;11.40;;
57311;SDS011;43154;50.966;18.316;2023-04-08T00:12:38;26.60;;;11.50;;
57311;SDS011;43154;50.966;18.316;2023-04-08T00:15:10;25.00;;;10.90;;
57311;SDS011;43154;50.966;18.316;2023-04-08T00:17:36;28.00;;;12.30;;
57311;SDS011;43154;50.966;18.316;2023-04-08T00:20:13;27.10;;;11.70;;
57311;SDS011;43154;50.966;18.316;2023-04-08T00:22:44;26.60;;;11.40;;
57311;SDS011;43154;50.966;18.316;2023-04-08T00:25:18;28.20;;;12.00;;
57311;SDS011;43154;50.966;18.316;2023-04-08T00:27:51;25.80;;;10.50;;
57311;SDS011;43154;50.966;18.316;2023-04-08T00:30:23;26.80;;;10.90;;
57311;SDS011;43154;50.966;18.316;2023-04-08T00:32:55;25.60;;;9.90;;
57311;SDS011;43154;50.966;18.316;2023-04-08T00:35:30;22.60;;;9.00;;
57311;SDS011;43154;50.966;18.316;2023-04-08T00:37:56;25.70;;;10.30;;
57311;SDS011;43154;50.966;18.316;2023-04-08T00:40:28;25.50;;;11.00;;
57311;SDS011;43154;50.966;18.316;2023-04-08T00:43:07;27.80;;;11.40;;
57311;SDS011;43154;50.966;18.316;2023-04-08T00:45:33;27.40;;;12.30;;
57311;SDS011;43154;50.966;18.316;2023-04-08T00:48:10;29.90;;;12.90;;
57311;SDS011;43154;50.966;18.316;2023-04-08T00:53:17;29.20;;;12.60;;
57311;SDS011;43154;50.966;18.316;2023-04-08T00:55:47;28.80;;;11.70;;
57311;SDS011;43154;50.966;18.316;2023-04-08T00:58:13;27.30;;;12.10;;
57311;SDS011;43154;50.966;18.316;2023-04-08T01:00:43;30.00;;;12.30;;
57311;SDS011;43154;50.966;18.316;2023-04-08T01:03:25;24.50;;;9.50;;
57311;SDS011;43154;50.966;18.316;2023-04-08T01:06:21;22.60;;;9.40;;
57311;SDS011;43154;50.966;18.316;2023-04-08T01:09:20;23.30;;;9.30;;
57311;SDS011;43154;50.966;18.316;2023-04-08T01:11:55;23.20;;;9.80;;
57311;SDS011;43154;50.966;18.316;2023-04-08T01:14:25;23.20;;;9.60;;
57311;SDS011;43154;50.966;18.316;2023-04-08T01:16:55;23.20;;;9.90;;
57311;SDS011;43154;50.966;18.316;2023-04-08T01:19:37;22.30;;;10.00;;
57311;SDS011;43154;50.966;18.316;2023-04-08T01:22:24;23.40;;;9.70;;
57311;SDS011;43154;50.966;18.316;2023-04-08T01:24:59;22.00;;;9.50;;
57311;SDS011;43154;50.966;18.316;2023-04-08T01:27:36;23.70;;;9.70;;
57311;SDS011;43154;50.966;18.316;2023-04-08T01:30:11;23.00;;;9.40;;
57311;SDS011;43154;50.966;18.316;2023-04-08T01:32:47;23.40;;;10.10;;
57311;SDS011;43154;50.966;18.316;2023-04-08T01:37:56;23.90;;;9.40;;
57311;SDS011;43154;50.966;18.316;2023-04-08T01:40:25;22.20;;;8.40;;
57311;SDS011;43154;50.966;18.316;2023-04-08T01:42:57;22.00;;;8.40;;
57311;SDS011;43154;50.966;18.316;2023-04-08T01:45:27;22.20;;;9.50;;
57311;SDS011;43154;50.966;18.316;2023-04-08T01:47:58;24.10;;;9.40;;
57311;SDS011;43154;50.966;18.316;2023-04-08T01:50:41;20.80;;;8.30;;
57311;SDS011;43154;50.966;18.316;2023-04-08T01:53:16;20.90;;;9.10;;
57311;SDS011;43154;50.966;18.316;2023-04-08T01:55:50;22.90;;;8.80;;
57311;SDS011;43154;50.966;18.316;2023-04-08T01:58:23;20.40;;;9.30;;
57311;SDS011;43154;50.966;18.316;2023-04-08T02:00:55;23.00;;;9.40;;
57311;SDS011;43154;50.966;18.316;2023-04-08T02:03:28;22.60;;;9.80;;
57311;SDS011;43154;50.966;18.316;2023-04-08T02:06:00;22.60;;;9.70;;
57311;SDS011;43154;50.966;18.316;2023-04-08T02:08:32;24.70;;;11.20;;
57311;SDS011;43154;50.966;18.316;2023-04-08T02:11:21;23.60;;;10.10;;
57311;SDS011;43154;50.966;18.316;2023-04-08T02:13:54;24.40;;;10.70;;
57311;SDS011;43154;50.966;18.316;2023-04-08T02:16:27;25.80;;;12.10;;
57311;SDS011;43154;50.966;18.316;2023-04-08T02:19:39;30.20;;;12.10;;
57311;SDS011;43154;50.966;18.316;2023-04-08T02:22:16;26.60;;;11.60;;
57311;SDS011;43154;50.966;18.316;2023-04-08T02:24:53;27.20;;;11.90;;
57311;SDS011;43154;50.966;18.316;2023-04-08T02:27:24;25.80;;;11.70;;
57311;SDS011;43154;50.966;18.316;2023-04-08T02:29:54;25.80;;;11.00;;
57311;SDS011;43154;50.966;18.316;2023-04-08T02:32:24;23.90;;;10.30;;
57311;SDS011;43154;50.966;18.316;2023-04-08T02:34:55;23.10;;;10.60;;
57311;SDS011;43154;50.966;18.316;2023-04-08T02:37:27;23.90;;;10.00;;
57311;SDS011;43154;50.966;18.316;2023-04-08T02:39:56;24.30;;;9.90;;
57311;SDS011;43154;50.966;18.316;2023-04-08T02:42:27;22.80;;;9.70;;
57311;SDS011;43154;50.966;18.316;2023-04-08T02:44:56;23.50;;;10.40;;
57311;SDS011;43154;50.966;18.316;2023-04-08T02:47:24;23.20;;;9.80;;
57311;SDS011;43154;50.966;18.316;2023-04-08T02:49:50;23.40;;;10.50;;
57311;SDS011;43154;50.966;18.316;2023-04-08T02:52:19;21.80;;;9.30;;
57311;SDS011;43154;50.966;18.316;2023-04-08T02:54:53;23.30;;;10.00;;
57311;SDS011;43154;50.966;18.316;2023-04-08T02:57:19;25.10;;;10.70;;
57311;SDS011;43154;50.966;18.316;2023-04-08T02:59:45;24.80;;;11.00;;
57311;SDS011;43154;50.966;18.316;2023-04-08T03:02:14;26.50;;;11.40;;
57311;SDS011;43154;50.966;18.316;2023-04-08T03:04:43;25.50;;;11.30;;
57311;SDS011;43154;50.966;18.316;2023-04-08T03:07:09;26.00;;;11.70;;
57311;SDS011;43154;50.966;18.316;2023-04-08T03:09:54;29.60;;;12.60;;
57311;SDS011;43154;50.966;18.316;2023-04-08T03:12:21;30.50;;;13.90;;
57311;SDS011;43154;50.966;18.316;2023-04-08T03:14:47;31.40;;;14.30;;
57311;SDS011;43154;50.966;18.316;2023-04-08T03:17:14;32.20;;;13.80;;
57311;SDS011;43154;50.966;18.316;2023-04-08T03:19:41;33.90;;;14.50;;
57311;SDS011;43154;50.966;18.316;2023-04-08T03:22:07;34.20;;;14.50;;
57311;SDS011;43154;50.966;18.316;2023-04-08T03:24:36;32.80;;;14.30;;
57311;SDS011;43154;50.966;18.316;2023-04-08T03:27:14;35.70;;;15.60;;
57311;SDS011;43154;50.966;18.316;2023-04-08T03:29:40;37.60;;;15.90;;
57311;SDS011;43154;50.966;18.316;2023-04-08T03:32:06;37.50;;;15.60;;
57311;SDS011;43154;50.966;18.316;2023-04-08T03:34:33;34.40;;;15.60;;
57311;SDS011;43154;50.966;18.316;2023-04-08T03:36:59;33.80;;;15.20;;
57311;SDS011;43154;50.966;18.316;2023-04-08T03:39:28;35.90;;;15.90;;
57311;SDS011;43154;50.966;18.316;2023-04-08T03:41:57;32.00;;;13.50;;
57311;SDS011;43154;50.966;18.316;2023-04-08T03:44:25;34.60;;;15.00;;
57311;SDS011;43154;50.966;18.316;2023-04-08T03:46:54;32.40;;;14.10;;
57311;SDS011;43154;50.966;18.316;2023-04-08T03:49:21;33.70;;;15.10;;
57311;SDS011;43154;50.966;18.316;2023-04-08T03:51:50;28.20;;;10.90;;
57311;SDS011;43154;50.966;18.316;2023-04-08T03:54:16;33.70;;;14.70;;
57311;SDS011;43154;50.966;18.316;2023-04-08T03:56:47;34.10;;;15.70;;
57311;SDS011;43154;50.966;18.316;2023-04-08T03:59:15;33.10;;;15.30;;
57311;SDS011;43154;50.966;18.316;2023-04-08T04:01:41;37.70;;;15.60;;
57311;SDS011;43154;50.966;18.316;2023-04-08T04:04:10;33.40;;;14.30;;
57311;SDS011;43154;50.966;18.316;2023-04-08T04:06:36;34.30;;;14.70;;
57311;SDS011;43154;50.966;18.316;2023-04-08T04:09:04;34.80;;;14.80;;
57311;SDS011;43154;50.966;18.316;2023-04-08T04:11:30;31.60;;;15.00;;
57311;SDS011;43154;50.966;18.316;2023-04-08T04:13:58;32.20;;;14.90;;
57311;SDS011;43154;50.966;18.316;2023-04-08T04:16:24;32.40;;;14.60;;
57311;SDS011;43154;50.966;18.316;2023-04-08T04:18:53;37.30;;;16.60;;
57311;SDS011;43154;50.966;18.316;2023-04-08T04:21:26;36.10;;;16.20;;
57311;SDS011;43154;50.966;18.316;2023-04-08T04:23:52;34.70;;;15.80;;
57311;SDS011;43154;50.966;18.316;2023-04-08T04:26:19;33.30;;;16.00;;
57311;SDS011;43154;50.966;18.316;2023-04-08T04:28:47;36.90;;;16.70;;
57311;SDS011;43154;50.966;18.316;2023-04-08T04:31:19;35.90;;;16.50;;
57311;SDS011;43154;50.966;18.316;2023-04-08T04:33:46;33.80;;;16.00;;
57311;SDS011;43154;50.966;18.316;2023-04-08T04:36:15;34.90;;;16.50;;
57311;SDS011;43154;50.966;18.316;2023-04-08T04:38:44;29.60;;;13.70;;
57311;SDS011;43154;50.966;18.316;2023-04-08T04:41:14;33.60;;;14.90;;
57311;SDS011;43154;50.966;18.316;2023-04-08T04:43:42;32.90;;;15.60;;
57311;SDS011;43154;50.966;18.316;2023-04-08T04:46:11;30.20;;;13.90;;
57311;SDS011;43154;50.966;18.316;2023-04-08T04:48:37;31.70;;;14.30;;
57311;SDS011;43154;50.966;18.316;2023-04-08T04:51:03;31.30;;;14.60;;
57311;SDS011;43154;50.966;18.316;2023-04-08T04:53:32;32.60;;;14.90;;
57311;SDS011;43154;50.966;18.316;2023-04-08T04:55:58;36.50;;;17.50;;
57311;SDS011;43154;50.966;18.316;2023-04-08T04:58:28;35.50;;;17.30;;
57311;SDS011;43154;50.966;18.316;2023-04-08T05:00:55;35.20;;;16.70;;
57311;SDS011;43154;50.966;18.316;2023-04-08T05:03:21;32.40;;;14.80;;
57311;SDS011;43154;50.966;18.316;2023-04-08T05:05:51;30.30;;;13.50;;
57311;SDS011;43154;50.966;18.316;2023-04-08T05:08:18;26.70;;;12.50;;
57311;SDS011;43154;50.966;18.316;2023-04-08T05:10:45;26.40;;;12.80;;
57311;SDS011;43154;50.966;18.316;2023-04-08T05:13:16;29.40;;;13.00;;
57311;SDS011;43154;50.966;18.316;2023-04-08T05:15:46;29.40;;;14.00;;
57311;SDS011;43154;50.966;18.316;2023-04-08T05:18:23;29.80;;;13.80;;
57311;SDS011;43154;50.966;18.316;2023-04-08T05:20:52;29.30;;;13.90;;
57311;SDS011;43154;50.966;18.316;2023-04-08T05:23:20;30.30;;;14.00;;
57311;SDS011;43154;50.966;18.316;2023-04-08T05:25:52;27.80;;;13.50;;
57311;SDS011;43154;50.966;18.316;2023-04-08T05:28:21;27.40;;;12.80;;
57311;SDS011;43154;50.966;18.316;2023-04-08T05:30:50;31.20;;;13.60;;
57311;SDS011;43154;50.966;18.316;2023-04-08T05:33:22;28.20;;;13.00;;
57311;SDS011;43154;50.966;18.316;2023-04-08T05:35:54;28.80;;;13.10;;
57311;SDS011;43154;50.966;18.316;2023-04-08T05:38:20;26.90;;;12.80;;
57311;SDS011;43154;50.966;18.316;2023-04-08T05:40:46;25.80;;;12.00;;
57311;SDS011;43154;50.966;18.316;2023-04-08T05:43:14;28.50;;;13.50;;
57311;SDS011;43154;50.966;18.316;2023-04-08T05:45:42;27.30;;;12.50;;
57311;SDS011;43154;50.966;18.316;2023-04-08T05:48:08;27.10;;;12.90;;
57311;SDS011;43154;50.966;18.316;2023-04-08T05:50:37;27.50;;;13.60;;
57311;SDS011;43154;50.966;18.316;2023-04-08T05:53:06;23.60;;;10.70;;
57311;SDS011;43154;50.966;18.316;2023-04-08T05:55:35;26.40;;;12.30;;
57311;SDS011;43154;50.966;18.316;2023-04-08T05:58:04;27.30;;;12.20;;
57311;SDS011;43154;50.966;18.316;2023-04-08T06:00:34;27.70;;;12.80;;
57311;SDS011;43154;50.966;18.316;2023-04-08T06:03:03;27.10;;;12.40;;
57311;SDS011;43154;50.966;18.316;2023-04-08T06:05:32;27.80;;;13.20;;
57311;SDS011;43154;50.966;18.316;2023-04-08T06:08:00;25.20;;;12.50;;
57311;SDS011;43154;50.966;18.316;2023-04-08T06:10:34;28.30;;;13.30;;
57311;SDS011;43154;50.966;18.316;2023-04-08T06:13:00;29.20;;;13.80;;
57311;SDS011;43154;50.966;18.316;2023-04-08T06:15:29;26.90;;;11.50;;
57311;SDS011;43154;50.966;18.316;2023-04-08T06:18:00;30.20;;;14.20;;
57311;SDS011;43154;50.966;18.316;2023-04-08T06:20:29;29.50;;;12.80;;
57311;SDS011;43154;50.966;18.316;2023-04-08T06:22:57;29.20;;;13.00;;
57311;SDS011;43154;50.966;18.316;2023-04-08T06:25:28;26.30;;;12.00;;
57311;SDS011;43154;50.966;18.316;2023-04-08T06:27:54;26.30;;;12.70;;
57311;SDS011;43154;50.966;18.316;2023-04-08T06:30:26;26.50;;;12.20;;
57311;SDS011;43154;50.966;18.316;2023-04-08T06:32:54;28.30;;;13.00;;
57311;SDS011;43154;50.966;18.316;2023-04-08T06:35:23;27.60;;;12.50;;
57311;SDS011;43154;50.966;18.316;2023-04-08T06:37:49;26.50;;;11.90;;
57311;SDS011;43154;50.966;18.316;2023-04-08T06:40:15;26.00;;;11.60;;
57311;SDS011;43154;50.966;18.316;2023-04-08T06:42:44;23.10;;;11.10;;
57311;SDS011;43154;50.966;18.316;2023-04-08T06:45:10;27.10;;;12.00;;
57311;SDS011;43154;50.966;18.316;2023-04-08T06:47:36;23.80;;;11.40;;
57311;SDS011;43154;50.966;18.316;2023-04-08T06:50:05;22.20;;;9.70;;
57311;SDS011;43154;50.966;18.316;2023-04-08T06:52:34;26.00;;;12.80;;
57311;SDS011;43154;50.966;18.316;2023-04-08T06:55:00;28.70;;;13.70;;
57311;SDS011;43154;50.966;18.316;2023-04-08T06:57:29;23.70;;;11.50;;
57311;SDS011;43154;50.966;18.316;2023-04-08T06:59:59;27.00;;;12.70;;
57311;SDS011;43154;50.966;18.316;2023-04-08T07:02:25;26.40;;;11.20;;
57311;SDS011;43154;50.966;18.316;2023-04-08T07:04:54;28.20;;;13.20;;
57311;SDS011;43154;50.966;18.316;2023-04-08T07:07:23;26.50;;;12.20;;
57311;SDS011;43154;50.966;18.316;2023-04-08T07:09:50;25.00;;;11.70;;
57311;SDS011;43154;50.966;18.316;2023-04-08T07:12:19;25.30;;;11.20;;
57311;SDS011;43154;50.966;18.316;2023-04-08T07:14:45;23.80;;;11.60;;
57311;SDS011;43154;50.966;18.316;2023-04-08T07:17:16;23.30;;;11.00;;
57311;SDS011;43154;50.966;18.316;2023-04-08T07:19:46;23.80;;;10.40;;
57311;SDS011;43154;50.966;18.316;2023-04-08T07:22:14;25.60;;;11.40;;
57311;SDS011;43154;50.966;18.316;2023-04-08T07:24:40;23.60;;;11.20;;
57311;SDS011;43154;50.966;18.316;2023-04-08T07:27:12;25.10;;;11.80;;
57311;SDS011;43154;50.966;18.316;2023-04-08T07:29:44;22.50;;;10.50;;
57311;SDS011;43154;50.966;18.316;2023-04-08T07:32:14;22.50;;;10.00;;
57311;SDS011;43154;50.966;18.316;2023-04-08T07:34:40;23.00;;;10.40;;
57311;SDS011;43154;50.966;18.316;2023-04-08T07:37:11;22.00;;;10.60;;
57311;SDS011;43154;50.966;18.316;2023-04-08T07:39:45;22.40;;;11.00;;
57311;SDS011;43154;50.966;18.316;2023-04-08T07:42:19;22.10;;;10.00;;
57311;SDS011;43154;50.966;18.316;2023-04-08T07:44:53;21.30;;;10.40;;
57311;SDS011;43154;50.966;18.316;2023-04-08T07:47:29;20.10;;;9.10;;
57311;SDS011;43154;50.966;18.316;2023-04-08T07:50:10;20.10;;;10.30;;
57311;SDS011;43154;50.966;18.316;2023-04-08T07:52:42;22.90;;;9.90;;
57311;SDS011;43154;50.966;18.316;2023-04-08T07:55:12;22.60;;;10.40;;
57311;SDS011;43154;50.966;18.316;2023-04-08T07:57:53;20.00;;;9.70;;
57311;SDS011;43154;50.966;18.316;2023-04-08T08:00:25;21.50;;;10.80;;
57311;SDS011;43154;50.966;18.316;2023-04-08T08:02:54;19.50;;;9.90;;
57311;SDS011;43154;50.966;18.316;2023-04-08T08:05:26;24.20;;;11.20;;
57311;SDS011;43154;50.966;18.316;2023-04-08T08:07:59;20.80;;;10.20;;
57311;SDS011;43154;50.966;18.316;2023-04-08T08:10:45;18.50;;;8.70;;
57311;SDS011;43154;50.966;18.316;2023-04-08T08:13:26;18.70;;;9.40;;
57311;SDS011;43154;50.966;18.316;2023-04-08T08:16:18;17.60;;;8.80;;
57311;SDS011;43154;50.966;18.316;2023-04-08T08:21:46;16.90;;;8.70;;
57311;SDS011;43154;50.966;18.316;2023-04-08T08:24:22;17.50;;;8.40;;
57311;SDS011;43154;50.966;18.316;2023-04-08T08:26:57;18.80;;;9.70;;
57311;SDS011;43154;50.966;18.316;2023-04-08T08:29:34;17.60;;;8.40;;
57311;SDS011;43154;50.966;18.316;2023-04-08T08:32:18;17.60;;;8.60;;
57311;SDS011;43154;50.966;18.316;2023-04-08T08:34:47;18.00;;;9.20;;
57311;SDS011;43154;50.966;18.316;2023-04-08T08:37:20;16.50;;;8.20;;
57311;SDS011;43154;50.966;18.316;2023-04-08T08:39:52;17.90;;;8.50;;
57311;SDS011;43154;50.966;18.316;2023-04-08T08:42:52;17.70;;;8.40;;
57311;SDS011;43154;50.966;18.316;2023-04-08T08:45:27;19.10;;;9.30;;
57311;SDS011;43154;50.966;18.316;2023-04-08T08:47:58;18.30;;;9.00;;
57311;SDS011;43154;50.966;18.316;2023-04-08T09:45:05;17.70;;;8.80;;
57311;SDS011;43154;50.966;18.316;2023-04-08T09:48:09;17.70;;;9.40;;
57311;SDS011;43154;50.966;18.316;2023-04-08T09:51:14;17.80;;;9.10;;
57311;SDS011;43154;50.966;18.316;2023-04-08T09:54:11;19.50;;;10.40;;
57311;SDS011;43154;50.966;18.316;2023-04-08T10:07:38;18.60;;;9.90;;
57311;SDS011;43154;50.966;18.316;2023-04-08T10:17:30;18.20;;;9.60;;
57311;SDS011;43154;50.966;18.316;2023-04-08T10:24:20;20.30;;;10.80;;
57311;SDS011;43154;50.966;18.316;2023-04-08T10:28:22;18.40;;;8.40;;
57311;SDS011;43154;50.966;18.316;2023-04-08T10:31:04;17.50;;;8.40;;
57311;SDS011;43154;50.966;18.316;2023-04-08T10:37:38;23.10;;;11.70;;
57311;SDS011;43154;50.966;18.316;2023-04-08T10:40:47;17.30;;;9.20;;
57311;SDS011;43154;50.966;18.316;2023-04-08T10:49:55;19.70;;;10.50;;
57311;SDS011;43154;50.966;18.316;2023-04-08T10:53:12;19.20;;;9.80;;
57311;SDS011;43154;50.966;18.316;2023-04-08T10:59:30;17.50;;;8.70;;
57311;SDS011;43154;50.966;18.316;2023-04-08T11:05:36;19.30;;;10.90;;
57311;SDS011;43154;50.966;18.316;2023-04-08T11:08:34;17.20;;;8.70;;
57311;SDS011;43154;50.966;18.316;2023-04-08T11:11:30;16.50;;;8.90;;
57311;SDS011;43154;50.966;18.316;2023-04-08T11:14:33;19.30;;;10.90;;
57311;SDS011;43154;50.966;18.316;2023-04-08T11:17:52;19.60;;;10.70;;
57311;SDS011;43154;50.966;18.316;2023-04-08T11:20:31;15.60;;;7.90;;
57311;SDS011;43154;50.966;18.316;2023-04-08T11:23:40;17.20;;;9.20;;
57311;SDS011;43154;50.966;18.316;2023-04-08T11:26:10;15.50;;;7.90;;
57311;SDS011;43154;50.966;18.316;2023-04-08T11:28:47;18.90;;;9.30;;
57311;SDS011;43154;50.966;18.316;2023-04-08T11:31:25;17.80;;;9.30;;
57311;SDS011;43154;50.966;18.316;2023-04-08T11:34:06;17.90;;;10.40;;
57311;SDS011;43154;50.966;18.316;2023-04-08T11:36:55;17.60;;;9.30;;
57311;SDS011;43154;50.966;18.316;2023-04-08T11:39:50;17.50;;;9.30;;
57311;SDS011;43154;50.966;18.316;2023-04-08T11:46:19;17.80;;;9.30;;
57311;SDS011;43154;50.966;18.316;2023-04-08T11:52:39;17.00;;;8.70;;
57311;SDS011;43154;50.966;18.316;2023-04-08T11:55:54;16.50;;;8.00;;
57311;SDS011;43154;50.966;18.316;2023-04-08T11:58:44;18.00;;;9.70;;
57311;SDS011;43154;50.966;18.316;2023-04-08T12:01:32;19.50;;;10.10;;
57311;SDS011;43154;50.966;18.316;2023-04-08T12:10:56;18.00;;;9.70;;
57311;SDS011;43154;50.966;18.316;2023-04-08T12:14:05;17.40;;;8.50;;
57311;SDS011;43154;50.966;18.316;2023-04-08T12:16:59;16.10;;;8.50;;
57311;SDS011;43154;50.966;18.316;2023-04-08T12:20:02;19.50;;;9.60;;
57311;SDS011;43154;50.966;18.316;2023-04-08T12:22:52;17.80;;;8.90;;
57311;SDS011;43154;50.966;18.316;2023-04-08T12:25:49;18.60;;;9.40;;
57311;SDS011;43154;50.966;18.316;2023-04-08T12:28:34;24.60;;;13.80;;
57311;SDS011;43154;50.966;18.316;2023-04-08T12:31:21;20.80;;;11.00;;
57311;SDS011;43154;50.966;18.316;2023-04-08T12:34:24;17.70;;;9.70;;
57311;SDS011;43154;50.966;18.316;2023-04-08T12:37:09;19.60;;;10.00;;
57311;SDS011;43154;50.966;18.316;2023-04-08T12:46:09;16.40;;;8.70;;
57311;SDS011;43154;50.966;18.316;2023-04-08T12:52:39;16.80;;;8.70;;
57311;SDS011;43154;50.966;18.316;2023-04-08T12:55:32;19.50;;;10.00;;
57311;SDS011;43154;50.966;18.316;2023-04-08T12:58:36;19.70;;;9.80;;
57311;SDS011;43154;50.966;18.316;2023-04-08T13:01:29;20.70;;;11.30;;
57311;SDS011;43154;50.966;18.316;2023-04-08T13:04:49;20.00;;;9.80;;
57311;SDS011;43154;50.966;18.316;2023-04-08T13:07:39;19.00;;;10.30;;
57311;SDS011;43154;50.966;18.316;2023-04-08T13:10:46;19.40;;;9.30;;
57311;SDS011;43154;50.966;18.316;2023-04-08T13:13:46;19.50;;;9.70;;
57311;SDS011;43154;50.966;18.316;2023-04-08T13:17:09;18.60;;;9.70;;
57311;SDS011;43154;50.966;18.316;2023-04-08T13:19:50;20.00;;;9.70;;
57311;SDS011;43154;50.966;18.316;2023-04-08T13:22:45;19.70;;;10.10;;
57311;SDS011;43154;50.966;18.316;2023-04-08T13:32:50;22.80;;;11.70;;
57311;SDS011;43154;50.966;18.316;2023-04-08T13:38:55;18.40;;;9.50;;
57311;SDS011;43154;50.966;18.316;2023-04-08T13:42:12;21.20;;;10.30;;
57311;SDS011;43154;50.966;18.316;2023-04-08T13:45:35;19.40;;;9.90;;
57311;SDS011;43154;50.966;18.316;2023-04-08T13:49:00;20.60;;;9.80;;
57311;SDS011;43154;50.966;18.316;2023-04-08T13:55:26;19.70;;;10.00;;
57311;SDS011;43154;50.966;18.316;2023-04-08T14:01:54;20.20;;;9.00;;
57311;SDS011;43154;50.966;18.316;2023-04-08T14:04:48;18.40;;;9.50;;
57311;SDS011;43154;50.966;18.316;2023-04-08T14:11:07;19.00;;;9.80;;
57311;SDS011;43154;50.966;18.316;2023-04-08T14:14:09;18.80;;;8.90;;
57311;SDS011;43154;50.966;18.316;2023-04-08T14:17:30;18.30;;;9.30;;
57311;SDS011;43154;50.966;18.316;2023-04-08T14:23:48;20.10;;;10.50;;
57311;SDS011;43154;50.966;18.316;2023-04-08T14:30:00;19.50;;;10.00;;
57311;SDS011;43154;50.966;18.316;2023-04-08T14:32:59;18.30;;;9.20;;
57311;SDS011;43154;50.966;18.316;2023-04-08T14:36:06;18.50;;;9.60;;
57311;SDS011;43154;50.966;18.316;2023-04-08T14:39:13;19.20;;;10.90;;
57311;SDS011;43154;50.966;18.316;2023-04-08T14:41:51;19.00;;;9.70;;
57311;SDS011;43154;50.966;18.316;2023-04-08T14:45:12;21.40;;;11.50;;
57311;SDS011;43154;50.966;18.316;2023-04-08T14:48:18;19.60;;;10.50;;
57311;SDS011;43154;50.966;18.316;2023-04-08T14:51:27;19.70;;;11.00;;
57311;SDS011;43154;50.966;18.316;2023-04-08T14:54:42;19.10;;;10.40;;
57311;SDS011;43154;50.966;18.316;2023-04-08T14:57:56;19.50;;;11.00;;
57311;SDS011;43154;50.966;18.316;2023-04-08T15:07:24;20.30;;;11.10;;
57311;SDS011;43154;50.966;18.316;2023-04-08T15:10:09;21.90;;;11.00;;
57311;SDS011;43154;50.966;18.316;2023-04-08T15:16:08;21.30;;;11.20;;
57311;SDS011;43154;50.966;18.316;2023-04-08T15:18:34;21.00;;;11.40;;
57311;SDS011;43154;50.966;18.316;2023-04-08T15:21:00;21.50;;;11.50;;
57311;SDS011;43154;50.966;18.316;2023-04-08T15:23:26;20.10;;;10.70;;
57311;SDS011;43154;50.966;18.316;2023-04-08T15:25:51;22.10;;;12.70;;
57311;SDS011;43154;50.966;18.316;2023-04-08T15:28:17;24.40;;;11.10;;
57311;SDS011;43154;50.966;18.316;2023-04-08T15:30:42;21.70;;;11.80;;
57311;SDS011;43154;50.966;18.316;2023-04-08T15:33:08;31.20;;;16.60;;
57311;SDS011;43154;50.966;18.316;2023-04-08T15:35:34;20.90;;;11.10;;
57311;SDS011;43154;50.966;18.316;2023-04-08T15:38:02;18.20;;;9.60;;
57311;SDS011;43154;50.966;18.316;2023-04-08T15:40:28;19.50;;;10.50;;
57311;SDS011;43154;50.966;18.316;2023-04-08T15:42:56;21.10;;;11.00;;
57311;SDS011;43154;50.966;18.316;2023-04-08T15:45:22;21.10;;;11.70;;
57311;SDS011;43154;50.966;18.316;2023-04-08T15:47:47;20.80;;;11.70;;
57311;SDS011;43154;50.966;18.316;2023-04-08T15:50:13;18.40;;;10.10;;
57311;SDS011;43154;50.966;18.316;2023-04-08T15:52:39;22.90;;;11.60;;
57311;SDS011;43154;50.966;18.316;2023-04-08T15:55:06;21.00;;;10.40;;
57311;SDS011;43154;50.966;18.316;2023-04-08T15:57:32;19.60;;;10.50;;
57311;SDS011;43154;50.966;18.316;2023-04-08T16:00:00;21.00;;;10.80;;
57311;SDS011;43154;50.966;18.316;2023-04-08T16:02:26;21.90;;;11.90;;
57311;SDS011;43154;50.966;18.316;2023-04-08T16:04:52;20.90;;;11.40;;
57311;SDS011;43154;50.966;18.316;2023-04-08T16:07:17;21.60;;;11.50;;
57311;SDS011;43154;50.966;18.316;2023-04-08T16:09:43;23.00;;;12.00;;
57311;SDS011;43154;50.966;18.316;2023-04-08T16:12:08;41.20;;;15.10;;
57311;SDS011;43154;50.966;18.316;2023-04-08T16:14:35;30.20;;;14.60;;
57311;SDS011;43154;50.966;18.316;2023-04-08T16:17:00;62.80;;;24.80;;
57311;SDS011;43154;50.966;18.316;2023-04-08T16:19:26;52.70;;;21.50;;
57311;SDS011;43154;50.966;18.316;2023-04-08T16:21:51;55.00;;;22.20;;
57311;SDS011;43154;50.966;18.316;2023-04-08T16:24:17;42.90;;;19.80;;
57311;SDS011;43154;50.966;18.316;2023-04-08T16:26:44;46.40;;;22.60;;
57311;SDS011;43154;50.966;18.316;2023-04-08T16:29:10;61.70;;;24.30;;
57311;SDS011;43154;50.966;18.316;2023-04-08T16:31:36;51.50;;;21.60;;
57311;SDS011;43154;50.966;18.316;2023-04-08T16:34:01;50.20;;;21.10;;
57311;SDS011;43154;50.966;18.316;2023-04-08T16:36:28;45.50;;;19.10;;
57311;SDS011;43154;50.966;18.316;2023-04-08T16:38:54;54.20;;;22.10;;
57311;SDS011;43154;50.966;18.316;2023-04-08T16:41:19;42.40;;;20.20;;
57311;SDS011;43154;50.966;18.316;2023-04-08T16:43:45;33.30;;;17.30;;
57311;SDS011;43154;50.966;18.316;2023-04-08T16:46:11;30.60;;;16.30;;
57311;SDS011;43154;50.966;18.316;2023-04-08T16:48:40;29.50;;;15.90;;
57311;SDS011;43154;50.966;18.316;2023-04-08T16:51:08;35.30;;;18.40;;
57311;SDS011;43154;50.966;18.316;2023-04-08T16:53:34;36.80;;;19.20;;
57311;SDS011;43154;50.966;18.316;2023-04-08T16:56:01;34.00;;;18.30;;
57311;SDS011;43154;50.966;18.316;2023-04-08T16:58:27;35.10;;;18.90;;
57311;SDS011;43154;50.966;18.316;2023-04-08T17:00:52;41.70;;;22.80;;
57311;SDS011;43154;50.966;18.316;2023-04-08T17:03:18;41.00;;;22.90;;
57311;SDS011;43154;50.966;18.316;2023-04-08T17:05:44;37.40;;;19.70;;
57311;SDS011;43154;50.966;18.316;2023-04-08T17:08:09;33.90;;;18.30;;
57311;SDS011;43154;50.966;18.316;2023-04-08T17:10:35;38.00;;;19.80;;
57311;SDS011;43154;50.966;18.316;2023-04-08T17:13:00;38.80;;;21.40;;
57311;SDS011;43154;50.966;18.316;2023-04-08T17:15:26;38.20;;;21.50;;
57311;SDS011;43154;50.966;18.316;2023-04-08T17:17:51;38.60;;;21.20;;
57311;SDS011;43154;50.966;18.316;2023-04-08T17:20:17;42.00;;;22.40;;
57311;SDS011;43154;50.966;18.316;2023-04-08T17:22:43;43.00;;;24.40;;
57311;SDS011;43154;50.966;18.316;2023-04-08T17:25:08;42.90;;;23.20;;
57311;SDS011;43154;50.966;18.316;2023-04-08T17:27:34;37.50;;;21.40;;
57311;SDS011;43154;50.966;18.316;2023-04-08T17:30:00;36.30;;;21.00;;
57311;SDS011;43154;50.966;18.316;2023-04-08T17:32:26;34.90;;;18.20;;
57311;SDS011;43154;50.966;18.316;2023-04-08T17:34:52;34.40;;;18.50;;
57311;SDS011;43154;50.966;18.316;2023-04-08T17:37:18;36.90;;;19.90;;
57311;SDS011;43154;50.966;18.316;2023-04-08T17:39:44;33.20;;;18.30;;
57311;SDS011;43154;50.966;18.316;2023-04-08T17:42:09;34.90;;;18.70;;
57311;SDS011;43154;50.966;18.316;2023-04-08T17:44:35;31.20;;;17.40;;
57311;SDS011;43154;50.966;18.316;2023-04-08T17:47:02;34.90;;;19.10;;
57311;SDS011;43154;50.966;18.316;2023-04-08T17:49:28;35.80;;;18.70;;